Time;durP1;ratioP1;P1;durP2;ratioP2;P2;SDS_P1;SDS_P2;PMS_P1;PMS_P2;Temp;Humidity;BMP_temperature;BMP_pressure;BME280_temperature;BME280_humidity;BME280_pressure;Samples;Min_cycle;Max_cycle;Signal;HPM_P1;HPM_P2
2022/03/03 00:01:48;;;;;;;24.95;14.85;;;;;;;8.92;57.23;98939.00;4915945;29;20379;-49
2022/03/03 00:04:14;;;;;;;21.30;13.10;;;;;;;8.82;57.61;98945.50;4915937;29;20034;-49
2022/03/03 00:06:40;;;;;;;23.77;13.98;;;;;;;8.53;58.50;98947.13;4915845;29;20080;-48
2022/03/03 00:09:06;;;;;;;18.98;15.10;;;;;;;8.30;59.07;98939.34;4914558;29;20494;-49
2022/03/03 00:11:32;;;;;;;24.00;15.27;;;;;;;8.18;59.86;98936.34;4915702;29;20055;-49
2022/03/03 00:13:59;;;;;;;19.25;12.88;;;;;;;8.29;59.62;98938.53;4915803;29;20024;-49
2022/03/03 00:16:26;;;;;;;24.63;16.13;;;;;;;8.41;59.44;98938.94;4915789;29;20030;-48
2022/03/03 00:18:52;;;;;;;24.05;15.13;;;;;;;8.29;59.38;98933.31;4915807;29;20024;-49
2022/03/03 00:21:18;;;;;;;24.85;16.15;;;;;;;8.40;59.83;98935.47;4915728;29;20060;-49
2022/03/03 00:23:44;;;;;;;22.50;15.13;;;;;;;8.61;58.78;98936.56;4915666;29;20034;-48
2022/03/03 00:26:09;;;;;;;25.05;19.83;;;;;;;8.57;58.96;98940.53;4915695;29;20103;-48
2022/03/03 00:28:35;;;;;;;26.20;18.67;;;;;;;8.40;59.16;98935.47;4914354;29;20063;-49
2022/03/03 00:31:02;;;;;;;37.63;25.08;;;;;;;8.24;59.65;98945.28;4914352;29;20074;-49
2022/03/03 00:33:27;;;;;;;23.65;16.92;;;;;;;8.20;59.40;98939.59;4915685;29;20052;-48
2022/03/03 00:35:53;;;;;;;21.55;15.82;;;;;;;8.23;60.03;98944.47;4914292;29;20066;-48
2022/03/03 00:38:19;;;;;;;26.17;15.02;;;;;;;8.28;59.74;98936.91;4914277;29;20512;-48
2022/03/03 00:40:45;;;;;;;23.55;15.80;;;;;;;8.31;59.86;98935.72;4915569;29;20032;-48
2022/03/03 00:43:10;;;;;;;25.02;14.82;;;;;;;8.33;59.81;98926.72;4915568;29;20099;-48
2022/03/03 00:45:37;;;;;;;23.13;14.02;;;;;;;8.52;59.31;98928.00;4915510;29;20433;-49
2022/03/03 00:48:04;;;;;;;22.25;14.23;;;;;;;8.55;59.32;98927.66;4914122;29;20064;-49
2022/03/03 00:50:30;;;;;;;25.13;14.10;;;;;;;8.32;59.33;98922.47;4915470;29;20028;-49
2022/03/03 00:52:56;;;;;;;17.98;13.07;;;;;;;8.07;59.47;98924.53;4915477;29;20024;-49
2022/03/03 00:55:22;;;;;;;20.55;15.10;;;;;;;7.93;60.08;98915.69;4915487;29;20379;-48
2022/03/03 00:57:48;;;;;;;25.55;13.40;;;;;;;7.92;59.76;98916.66;4914156;29;20083;-49
2022/03/03 01:00:14;;;;;;;21.08;13.88;;;;;;;7.92;59.83;98916.66;4915399;29;20043;-49
2022/03/03 01:02:40;;;;;;;20.58;13.95;;;;;;;7.92;60.05;98916.66;4914084;29;20024;-49
2022/03/03 01:05:07;;;;;;;19.52;13.57;;;;;;;7.88;59.92;98904.13;4915374;29;20486;-49
2022/03/03 01:07:33;;;;;;;24.45;14.63;;;;;;;7.96;60.23;98907.47;4913888;29;20119;-49
2022/03/03 01:09:58;;;;;;;17.75;13.07;;;;;;;8.27;60.12;98903.09;4917161;29;20127;-49
2022/03/03 01:12:24;;;;;;;24.23;13.43;;;;;;;8.47;59.29;98913.84;4918939;29;20063;-49
2022/03/03 01:14:50;;;;;;;22.33;12.95;;;;;;;8.38;58.40;98911.28;4918895;29;20501;-49
2022/03/03 01:17:16;;;;;;;20.40;13.23;;;;;;;8.26;58.76;98915.34;4918904;29;20035;-49
2022/03/03 01:19:42;;;;;;;19.20;13.50;;;;;;;8.19;59.26;98911.84;4918860;29;20024;-49
2022/03/03 01:22:08;;;;;;;31.08;15.55;;;;;;;8.30;59.06;98915.81;4918758;29;20115;-48
2022/03/03 01:24:34;;;;;;;23.63;14.35;;;;;;;8.23;59.04;98909.66;4918775;29;20024;-48
2022/03/03 01:27:00;;;;;;;17.73;13.65;;;;;;;8.09;59.07;98911.28;4917347;29;20410;-50
2022/03/03 01:29:26;;;;;;;24.70;15.57;;;;;;;7.90;59.24;98912.59;4918694;29;20442;-48
2022/03/03 01:31:53;;;;;;;17.88;13.35;;;;;;;7.78;59.59;98905.19;4917325;29;20114;-49
2022/03/03 01:34:18;;;;;;;17.25;12.98;;;;;;;7.73;59.92;98907.53;4918537;29;20107;-48
2022/03/03 01:36:44;;;;;;;22.52;13.63;;;;;;;7.77;60.17;98900.97;4918522;29;20168;-49
2022/03/03 01:39:10;;;;;;;24.20;14.60;;;;;;;7.71;59.93;98899.06;4918478;29;20024;-48
2022/03/03 01:41:38;;;;;;;26.27;14.32;;;;;;;7.57;60.47;98887.56;4917133;29;20024;-48
2022/03/03 01:44:04;;;;;;;20.05;15.13;;;;;;;7.49;60.96;98890.25;4918415;29;20060;-48
2022/03/03 01:46:32;;;;;;;20.40;14.80;;;;;;;7.39;60.67;98885.25;4918238;29;20035;-48
2022/03/03 01:48:58;;;;;;;20.45;14.60;;;;;;;7.32;61.53;98883.50;4918284;29;20024;-49
2022/03/03 01:51:23;;;;;;;26.58;14.52;;;;;;;7.28;60.78;98882.25;4918275;29;20391;-48
2022/03/03 01:53:50;;;;;;;24.65;14.20;;;;;;;7.25;61.87;98882.59;4918228;29;20442;-48
2022/03/03 01:56:17;;;;;;;22.73;14.25;;;;;;;7.29;62.10;98883.88;4916927;29;20032;-49
2022/03/03 01:58:44;;;;;;;22.88;14.55;;;;;;;7.34;61.42;98871.91;4918164;29;20138;-49
2022/03/03 02:01:10;;;;;;;22.45;13.98;;;;;;;7.37;61.58;98868.97;4918131;29;20024;-49
2022/03/03 02:03:36;;;;;;;25.42;13.88;;;;;;;7.64;60.88;98872.00;4918022;29;20148;-48
2022/03/03 02:06:02;;;;;;;21.20;14.05;;;;;;;7.70;60.07;98867.88;4918030;29;20426;-49
2022/03/03 02:08:28;;;;;;;26.17;14.82;;;;;;;7.62;60.16;98876.59;4916665;29;20088;-49
2022/03/03 02:10:54;;;;;;;21.13;14.23;;;;;;;7.62;60.68;98876.59;4916339;29;20466;-49
2022/03/03 02:13:20;;;;;;;22.25;14.23;;;;;;;7.52;60.83;98874.22;4916636;29;20028;-49
2022/03/03 02:15:55;;;;;;;20.10;13.32;;;;;;;7.29;60.71;98871.63;4917870;29;20398;-49
2022/03/03 02:18:22;;;;;;;26.37;13.67;;;;;;;7.21;61.71;98863.88;4917923;29;20071;-49
2022/03/03 02:20:48;;;;;;;25.90;13.63;;;;;;;7.38;61.52;98867.16;4917458;29;20028;-49
2022/03/03 02:23:15;;;;;;;24.80;13.75;;;;;;;7.56;60.93;98870.25;4917787;29;20056;-48
2022/03/03 02:25:41;;;;;;;34.10;15.20;;;;;;;7.45;60.24;98867.28;4916369;29;20028;-49
2022/03/03 02:28:07;;;;;;;23.73;14.88;;;;;;;7.28;61.13;98856.13;4917572;29;20115;-49
2022/03/03 02:30:33;;;;;;;24.05;14.18;;;;;;;7.25;61.34;98849.47;4917617;29;20111;-49
2022/03/03 02:32:59;;;;;;;19.58;14.40;;;;;;;7.28;60.96;98850.91;4917571;29;20075;-49
2022/03/03 02:35:27;;;;;;;20.83;14.65;;;;;;;7.13;61.60;98840.44;4916283;29;20087;-49
2022/03/03 02:37:53;;;;;;;24.38;14.65;;;;;;;7.27;61.85;98838.88;4916117;29;20036;-48
2022/03/03 02:40:22;;;;;;;21.63;14.35;;;;;;;7.53;60.83;98838.50;4916133;29;20028;-48
2022/03/03 02:42:50;;;;;;;23.88;13.35;;;;;;;7.60;60.60;98832.34;4916365;29;20091;-48
2022/03/03 02:45:16;;;;;;;26.55;13.48;;;;;;;7.65;60.61;98836.25;4916029;29;20516;-49
2022/03/03 02:47:45;;;;;;;23.45;13.23;;;;;;;7.84;60.28;98829.69;4917216;29;20075;-48
2022/03/03 02:50:12;;;;;;;18.45;12.50;;;;;;;7.85;59.65;98826.91;4917278;29;20024;-48
2022/03/03 02:52:38;;;;;;;23.17;13.23;;;;;;;7.70;59.58;98829.50;4915915;29;20028;-49
2022/03/03 02:55:05;;;;;;;25.40;13.77;;;;;;;7.75;60.35;98826.38;4917154;29;20028;-48
2022/03/03 03:00:16;;;;;;;19.98;14.23;;;;;;;7.62;59.70;98819.13;4917353;29;20047;-49
2022/03/03 03:02:42;;;;;;;21.92;13.57;;;;;;;7.29;60.96;98818.63;4917016;29;20031;-48
2022/03/03 03:05:09;;;;;;;23.98;14.75;;;;;;;7.13;61.43;98809.13;4916939;29;20102;-48
2022/03/03 03:07:34;;;;;;;26.48;13.82;;;;;;;7.18;61.11;98814.59;4916958;29;20036;-48
2022/03/03 03:10:00;;;;;;;22.20;14.25;;;;;;;7.18;61.43;98806.78;4915370;29;20040;-48
2022/03/03 03:12:26;;;;;;;20.42;14.50;;;;;;;7.05;61.75;98811.78;4916823;29;20075;-49
2022/03/03 03:14:52;;;;;;;25.45;15.13;;;;;;;6.86;62.60;98807.81;4916816;29;20079;-48
2022/03/03 03:17:18;;;;;;;25.23;14.57;;;;;;;6.68;62.39;98815.91;4916756;29;20028;-49
2022/03/03 03:19:43;;;;;;;18.95;14.25;;;;;;;6.56;63.35;98805.06;4916709;29;20073;-48
2022/03/03 03:22:09;;;;;;;29.02;14.38;;;;;;;6.48;63.54;98802.50;4916663;29;20725;-48
2022/03/03 03:24:35;;;;;;;20.48;14.15;;;;;;;6.43;63.28;98803.03;4916665;29;20406;-48
2022/03/03 03:27:00;;;;;;;19.02;13.57;;;;;;;6.34;63.55;98807.47;4916509;29;20035;-48
2022/03/03 03:29:26;;;;;;;21.92;14.95;;;;;;;6.33;63.74;98803.22;4915229;29;20020;-48
2022/03/03 03:31:52;;;;;;;21.33;14.10;;;;;;;6.37;64.09;98788.06;4915844;29;20035;-48
2022/03/03 03:34:18;;;;;;;27.42;14.05;;;;;;;6.50;64.12;98795.31;4916441;29;20496;-49
2022/03/03 03:36:43;;;;;;;26.15;14.20;;;;;;;6.61;63.60;98789.72;4916380;29;20258;-48
2022/03/03 03:39:09;;;;;;;20.67;13.13;;;;;;;6.72;63.44;98788.50;4916341;29;20028;-47
2022/03/03 03:41:35;;;;;;;18.90;13.95;;;;;;;6.76;63.47;98780.19;4916283;29;20024;-48
2022/03/03 03:44:01;;;;;;;23.45;12.77;;;;;;;6.85;63.00;98785.34;4916338;29;20555;-49
2022/03/03 03:46:26;;;;;;;20.83;12.25;;;;;;;6.91;62.77;98782.84;4914932;29;20032;-48
2022/03/03 03:48:52;;;;;;;22.65;15.38;;;;;;;6.93;62.53;98772.25;4916184;29;20569;-48
2022/03/03 03:51:18;;;;;;;23.92;13.77;;;;;;;6.86;62.76;98766.91;4916221;29;20026;-47
2022/03/03 03:53:43;;;;;;;23.70;14.23;;;;;;;6.82;62.66;98773.44;4916143;29;20075;-49
2022/03/03 03:56:09;;;;;;;23.58;13.30;;;;;;;6.91;62.39;98761.97;4916136;29;20056;-48
2022/03/03 03:58:35;;;;;;;24.60;14.70;;;;;;;7.03;61.86;98765.00;4916176;29;20130;-49
2022/03/03 04:01:00;;;;;;;21.27;13.00;;;;;;;7.12;61.58;98763.13;4914800;29;20032;-48
2022/03/03 04:03:26;;;;;;;21.42;12.35;;;;;;;7.19;61.92;98770.06;4914815;29;20450;-48
2022/03/03 04:05:52;;;;;;;21.35;12.80;;;;;;;7.29;61.61;98767.22;4914685;29;20042;-49
2022/03/03 04:08:18;;;;;;;17.23;12.00;;;;;;;7.19;61.12;98764.03;4914617;29;20454;-48
2022/03/03 04:10:45;;;;;;;20.65;13.18;;;;;;;7.08;61.89;98765.25;4914399;29;20044;-48
2022/03/03 04:13:11;;;;;;;20.40;14.02;;;;;;;6.92;61.81;98761.00;4914654;29;20035;-48
2022/03/03 04:15:37;;;;;;;17.63;12.65;;;;;;;6.87;62.18;98762.50;4914501;29;20060;-48
2022/03/03 04:18:03;;;;;;;16.85;13.25;;;;;;;6.87;62.63;98759.91;4915863;29;20114;-48
2022/03/03 04:20:29;;;;;;;17.80;12.18;;;;;;;7.02;62.27;98762.53;4914509;29;20090;-49
2022/03/03 04:22:54;;;;;;;18.95;12.63;;;;;;;7.14;61.84;98761.13;4915783;29;20450;-48
2022/03/03 04:25:20;;;;;;;17.75;11.50;;;;;;;7.08;61.86;98761.84;4915725;29;20032;-47
2022/03/03 04:27:46;;;;;;;22.25;12.73;;;;;;;7.12;61.60;98760.50;4914347;29;20114;-48
2022/03/03 04:30:12;;;;;;;16.10;10.52;;;;;;;7.10;61.91;98759.88;4914346;29;20076;-48
2022/03/03 04:32:39;;;;;;;24.63;11.57;;;;;;;6.93;60.97;98757.38;4915693;29;20056;-48
2022/03/03 04:35:05;;;;;;;22.35;12.45;;;;;;;6.82;61.62;98749.16;4914308;29;20067;-49
2022/03/03 04:37:31;;;;;;;22.60;12.73;;;;;;;6.70;62.05;98754.81;4915625;29;20107;-48
2022/03/03 04:39:58;;;;;;;21.25;13.25;;;;;;;6.51;62.04;98753.44;4914315;29;20472;-48
2022/03/03 04:42:23;;;;;;;22.40;13.73;;;;;;;6.44;62.88;98754.28;4914231;29;20085;-48
2022/03/03 04:44:49;;;;;;;23.42;13.32;;;;;;;6.47;62.68;98753.97;4917898;29;20055;-49
2022/03/03 04:47:15;;;;;;;23.80;12.43;;;;;;;6.57;63.12;98751.94;4918075;29;20405;-49
2022/03/03 04:49:41;;;;;;;24.10;13.60;;;;;;;6.63;62.28;98751.25;4918133;29;20032;-48
2022/03/03 04:52:07;;;;;;;19.38;12.68;;;;;;;6.55;62.29;98752.09;4918059;29;20079;-48
2022/03/03 04:54:33;;;;;;;21.75;12.82;;;;;;;6.59;62.52;98745.56;4919346;29;20260;-48
2022/03/03 04:56:58;;;;;;;22.52;13.10;;;;;;;6.68;62.73;98746.34;4917978;29;20060;-48
2022/03/03 04:59:24;;;;;;;19.20;12.23;;;;;;;6.79;62.16;98742.50;4917961;29;20062;-49
2022/03/03 05:01:51;;;;;;;19.67;12.80;;;;;;;6.88;62.29;98740.63;4917875;29;20494;-48
2022/03/03 05:04:20;;;;;;;23.38;11.98;;;;;;;6.98;61.78;98726.38;4917888;29;20032;-49
2022/03/03 05:06:48;;;;;;;19.33;11.40;;;;;;;7.04;61.85;98729.25;4917710;29;20449;-48
2022/03/03 05:09:13;;;;;;;16.20;11.57;;;;;;;7.07;61.03;98729.72;4917708;29;20498;-48
2022/03/03 05:11:39;;;;;;;19.92;12.48;;;;;;;7.14;61.25;98724.59;4917447;29;20056;-49
2022/03/03 05:14:05;;;;;;;21.27;12.40;;;;;;;7.21;61.14;98725.53;4918965;29;20112;-48
2022/03/03 05:16:31;;;;;;;21.85;12.52;;;;;;;7.28;60.96;98720.41;4917631;29;20032;-48
2022/03/03 05:18:57;;;;;;;18.70;12.70;;;;;;;7.29;60.91;98712.41;4917506;29;20050;-49
2022/03/03 05:21:23;;;;;;;23.58;12.00;;;;;;;7.27;60.71;98709.16;4917529;29;20031;-49
2022/03/03 05:23:49;;;;;;;21.73;13.05;;;;;;;7.17;60.42;98704.19;4917529;29;20020;-48
2022/03/03 05:26:15;;;;;;;18.55;13.27;;;;;;;6.90;61.02;98702.97;4917455;29;20413;-48
2022/03/03 05:28:40;;;;;;;23.45;15.10;;;;;;;6.81;61.80;98701.41;4917414;29;20040;-48
2022/03/03 05:31:06;;;;;;;20.08;13.13;;;;;;;6.68;61.89;98704.63;4917367;29;20032;-49
2022/03/03 05:33:33;;;;;;;22.42;12.30;;;;;;;6.63;62.67;98704.31;4918624;29;20024;-47
2022/03/03 05:36:02;;;;;;;21.60;12.65;;;;;;;6.72;62.74;98699.84;4917346;29;20024;-49
2022/03/03 05:38:31;;;;;;;19.80;12.63;;;;;;;6.84;62.22;98702.84;4917262;29;20083;-49
2022/03/03 05:40:58;;;;;;;18.70;13.20;;;;;;;6.78;62.97;98704.34;4917224;29;20122;-48
2022/03/03 05:43:25;;;;;;;18.23;12.27;;;;;;;6.80;62.87;98699.78;4917115;29;20557;-48
2022/03/03 05:45:54;;;;;;;26.98;13.02;;;;;;;6.86;62.23;98699.09;4918378;29;20028;-48
2022/03/03 05:48:22;;;;;;;16.98;11.95;;;;;;;6.79;61.98;98706.00;4918289;29;20032;-48
2022/03/03 05:50:48;;;;;;;23.23;13.48;;;;;;;6.70;61.99;98704.41;4917031;29;20028;-48
2022/03/03 05:53:15;;;;;;;20.00;13.02;;;;;;;6.46;62.38;98693.19;4916997;29;20024;-48
2022/03/03 05:55:44;;;;;;;24.98;12.82;;;;;;;6.20;63.24;98699.53;4917563;29;20028;-47
2022/03/03 05:58:21;;;;;;;35.67;14.07;;;;;;;5.98;63.82;98695.09;4916899;29;20024;-48
2022/03/03 06:00:49;;;;;;;18.95;13.15;;;;;;;5.90;64.23;98689.91;4916902;29;20062;-48
2022/03/03 06:03:20;;;;;;;21.98;13.07;;;;;;;5.89;64.60;98690.88;4916801;29;20024;-48
2022/03/03 06:06:01;;;;;;;20.73;13.35;;;;;;;5.87;64.58;98685.81;4918110;29;20039;-48
2022/03/03 06:08:31;;;;;;;19.70;13.82;;;;;;;5.93;64.28;98684.34;4918047;29;20398;-47
2022/03/03 06:11:01;;;;;;;24.38;13.50;;;;;;;5.95;64.65;98685.00;4916436;29;20080;-48
2022/03/03 06:13:35;;;;;;;22.70;13.43;;;;;;;6.10;64.57;98690.34;4916694;29;20600;-49
2022/03/03 06:16:02;;;;;;;21.70;12.27;;;;;;;6.37;64.07;98686.41;4916636;29;20034;-48
2022/03/03 06:18:33;;;;;;;22.67;14.23;;;;;;;6.44;63.27;98679.53;4916559;29;20028;-48
2022/03/03 06:21:00;;;;;;;28.90;18.15;;;;;;;6.34;63.27;98687.56;4917859;29;20108;-48
2022/03/03 06:23:26;;;;;;;21.70;14.15;;;;;;;6.27;63.23;98680.59;4916469;29;20029;-48
2022/03/03 06:26:03;;;;;;;33.08;21.42;;;;;;;6.35;63.73;98683.97;4916424;29;20028;-48
2022/03/03 06:28:30;;;;;;;22.38;13.57;;;;;;;6.57;63.10;98692.78;4916377;29;20036;-49
2022/03/03 06:30:56;;;;;;;27.45;12.93;;;;;;;6.72;63.02;98679.81;4917624;29;20025;-47
2022/03/03 06:33:22;;;;;;;19.98;12.85;;;;;;;6.72;61.98;98689.41;4916292;29;20036;-47
2022/03/03 06:35:48;;;;;;;17.52;12.05;;;;;;;6.56;62.09;98693.78;4916221;29;20406;-49
2022/03/03 06:38:14;;;;;;;20.33;12.02;;;;;;;6.60;62.81;98696.84;4916173;29;20508;-48
2022/03/03 06:40:40;;;;;;;18.83;13.50;;;;;;;6.62;61.92;98694.06;4917458;29;20032;-48
2022/03/03 06:43:06;;;;;;;22.75;14.52;;;;;;;6.54;62.84;98693.13;4916130;29;20037;-48
2022/03/03 06:45:32;;;;;;;22.38;14.25;;;;;;;6.67;63.03;98689.13;4917322;29;20024;-49
2022/03/03 06:48:00;;;;;;;23.70;12.63;;;;;;;6.79;62.67;98700.78;4916263;29;20509;-49
2022/03/03 06:50:27;;;;;;;20.60;13.32;;;;;;;6.93;61.98;98702.59;4916002;29;20029;-48
2022/03/03 06:52:54;;;;;;;37.20;14.85;;;;;;;7.13;61.97;98691.69;4915949;29;20035;-48
2022/03/03 06:55:26;;;;;;;30.17;14.30;;;;;;;7.31;60.59;98697.38;4915853;29;20457;-48
2022/03/03 06:57:57;;;;;;;23.83;13.40;;;;;;;7.42;60.37;98695.28;4915881;29;20482;-49
2022/03/03 07:00:33;;;;;;;26.08;17.52;;;;;;;7.53;60.45;98702.69;4915755;29;20032;-48
2022/03/03 07:03:01;;;;;;;34.60;16.45;;;;;;;7.51;60.45;98704.69;4915794;29;20031;-48
2022/03/03 07:05:29;;;;;;;25.17;16.77;;;;;;;7.55;60.74;98695.50;4915685;29;20055;-48
2022/03/03 07:07:55;;;;;;;23.15;15.02;;;;;;;7.68;59.50;98698.25;4914566;29;20025;-48
2022/03/03 07:10:25;;;;;;;23.10;12.98;;;;;;;7.96;58.97;98692.38;4915391;29;20048;-48
2022/03/03 07:12:53;;;;;;;22.35;11.93;;;;;;;8.22;58.30;98693.69;4915613;29;20035;-48
2022/03/03 07:15:20;;;;;;;21.25;13.32;;;;;;;8.22;58.06;98698.91;4916805;29;20514;-48
2022/03/03 07:18:01;;;;;;;22.08;12.60;;;;;;;8.09;57.74;98697.78;4915474;29;20087;-49
2022/03/03 07:20:33;;;;;;;31.35;12.43;;;;;;;8.16;58.81;98695.22;4915422;29;20402;-48
2022/03/03 07:23:03;;;;;;;27.45;13.05;;;;;;;8.24;57.54;98696.91;4915494;29;20039;-49
2022/03/03 07:25:39;;;;;;;22.75;12.18;;;;;;;8.38;57.67;98702.09;4916627;29;20101;-49
2022/03/03 07:28:08;;;;;;;18.38;13.07;;;;;;;8.50;57.29;98697.22;4916618;29;20028;-48
2022/03/03 07:30:40;;;;;;;22.33;12.77;;;;;;;8.31;56.80;98695.16;4915280;29;20383;-48
2022/03/03 07:33:27;;;;;;;29.50;13.20;;;;;;;8.22;57.71;98693.69;4916794;29;20039;-49
2022/03/03 07:35:56;;;;;;;28.67;14.05;;;;;;;8.34;57.77;98706.06;4886817;29;20200;-49
2022/03/03 07:38:28;;;;;;;34.90;15.27;;;;;;;8.31;57.30;98696.00;4915098;29;20036;-49
2022/03/03 07:40:55;;;;;;;28.60;14.73;;;;;;;8.32;57.83;98707.25;4915081;29;20036;-49
2022/03/03 07:43:21;;;;;;;32.28;15.02;;;;;;;8.51;57.53;98701.47;4915061;29;20030;-49
2022/03/03 07:45:47;;;;;;;27.67;13.80;;;;;;;8.80;57.60;98707.56;4914949;29;20028;-49
2022/03/03 07:48:13;;;;;;;19.15;12.90;;;;;;;8.94;56.08;98700.63;4914856;29;20625;-49
2022/03/03 07:50:41;;;;;;;19.50;12.70;;;;;;;8.84;56.16;98708.78;4914903;29;20030;-49
2022/03/03 07:53:12;;;;;;;23.98;13.30;;;;;;;8.90;56.83;98715.88;4916198;29;20025;-49
2022/03/03 07:55:55;;;;;;;21.90;12.50;;;;;;;8.76;56.29;98701.06;4914946;29;20035;-49
2022/03/03 07:58:27;;;;;;;25.80;14.18;;;;;;;8.72;57.02;98710.31;4914864;29;20036;-49
2022/03/03 08:00:57;;;;;;;22.02;15.23;;;;;;;8.81;56.56;98711.78;4916098;29;20028;-48
2022/03/03 08:03:23;;;;;;;28.80;13.95;;;;;;;9.06;56.85;98709.56;4914726;29;20036;-49
2022/03/03 08:05:58;;;;;;;21.95;12.40;;;;;;;9.52;55.77;98701.22;4914673;29;20528;-49
2022/03/03 08:08:28;;;;;;;21.92;13.07;;;;;;;9.98;55.09;98705.09;4914676;29;20119;-50
2022/03/03 08:11:06;;;;;;;21.48;14.32;;;;;;;10.31;53.98;98702.59;4914352;29;20052;-50
2022/03/03 08:13:32;;;;;;;36.75;14.40;;;;;;;10.37;53.95;98704.41;4914624;29;20171;-48
2022/03/03 08:15:58;;;;;;;110.75;19.85;;;;;;;10.72;53.70;98703.44;4914589;29;20086;-49
2022/03/03 08:18:32;;;;;;;83.10;16.83;;;;;;;11.13;52.95;98703.28;4915511;29;20402;-49
2022/03/03 08:21:02;;;;;;;40.50;14.60;;;;;;;11.38;52.13;98702.63;4916132;29;20032;-49
2022/03/03 08:23:30;;;;;;;34.75;14.75;;;;;;;11.54;51.51;98701.38;4914491;29;20075;-49
2022/03/03 08:25:57;;;;;;;36.88;14.55;;;;;;;11.59;51.22;98697.13;4914391;29;20024;-50
2022/03/03 08:28:24;;;;;;;29.17;19.25;;;;;;;11.75;50.85;98692.41;4914675;29;20048;-49
2022/03/03 08:31:03;;;;;;;35.13;16.77;;;;;;;12.02;50.71;98685.28;4914400;29;20021;-49
2022/03/03 08:33:40;;;;;;;28.42;15.13;;;;;;;12.45;50.02;98687.25;4915739;29;20036;-50
2022/03/03 08:36:15;;;;;;;25.90;13.20;;;;;;;12.62;48.99;98670.97;4914619;29;20051;-49
2022/03/03 08:38:50;;;;;;;21.73;13.23;;;;;;;12.60;48.57;98679.06;4915660;29;20040;-50
2022/03/03 08:41:19;;;;;;;24.02;14.15;;;;;;;12.84;48.35;98684.56;4915626;29;20032;-49
2022/03/03 08:43:50;;;;;;;28.23;14.85;;;;;;;13.04;47.66;98679.94;4914510;29;20181;-49
2022/03/03 08:46:20;;;;;;;20.65;14.50;;;;;;;13.21;47.06;98682.03;4915583;29;20111;-49
2022/03/03 08:48:49;;;;;;;23.38;13.95;;;;;;;13.38;47.26;98683.91;4915473;29;20064;-50
2022/03/03 08:51:16;;;;;;;25.23;16.00;;;;;;;13.72;46.48;98679.09;4914199;29;20024;-49
2022/03/03 08:53:42;;;;;;;35.22;16.08;;;;;;;13.87;46.22;98680.53;4915569;29;20099;-50
2022/03/03 08:56:08;;;;;;;24.85;14.70;;;;;;;14.02;46.31;98678.28;4915494;29;20028;-49
2022/03/03 08:58:35;;;;;;;25.23;13.60;;;;;;;14.41;45.09;98681.44;4914179;29;20044;-49
2022/03/03 09:01:00;;;;;;;28.27;14.38;;;;;;;14.99;44.55;98674.69;4914117;29;20464;-50
2022/03/03 09:03:26;;;;;;;30.35;14.98;;;;;;;15.69;43.06;98678.31;4914108;29;20024;-50
2022/03/03 09:05:54;;;;;;;54.35;15.40;;;;;;;16.67;41.78;98679.06;4914068;29;20499;-49
2022/03/03 09:08:20;;;;;;;36.85;14.90;;;;;;;17.52;40.33;98673.72;4915278;29;20024;-50
2022/03/03 09:10:46;;;;;;;28.98;14.65;;;;;;;18.07;39.47;98672.81;4915101;29;20051;-50
2022/03/03 09:13:12;;;;;;;36.55;14.23;;;;;;;18.77;38.28;98671.06;4929836;29;20613;-50
2022/03/03 09:15:38;;;;;;;29.70;12.82;;;;;;;19.11;37.38;98675.31;4915294;29;20414;-50
2022/03/03 09:18:04;;;;;;;26.60;13.82;;;;;;;19.15;37.18;98673.75;4913960;29;20028;-50
2022/03/03 09:20:32;;;;;;;38.47;13.82;;;;;;;19.50;36.76;98669.69;4913943;29;20036;-50
2022/03/03 09:22:59;;;;;;;37.38;15.23;;;;;;;19.97;35.80;98666.16;4915228;29;20027;-50
2022/03/03 09:25:25;;;;;;;21.73;14.65;;;;;;;20.80;34.11;98664.41;4915175;29;20051;-50
2022/03/03 09:27:51;;;;;;;34.17;15.88;;;;;;;20.85;33.75;98659.88;4914001;29;20071;-49
2022/03/03 09:30:18;;;;;;;57.33;15.95;;;;;;;20.77;33.88;98655.09;4914841;29;20517;-50
2022/03/03 09:32:44;;;;;;;24.73;12.57;;;;;;;20.83;33.71;98659.34;4918665;29;20024;-51
2022/03/03 09:35:11;;;;;;;32.03;12.35;;;;;;;20.77;33.72;98662.31;4918598;29;20406;-51
2022/03/03 09:37:38;;;;;;;41.15;13.40;;;;;;;21.94;32.91;98650.50;4918606;29;20493;-50
2022/03/03 09:40:04;;;;;;;27.73;11.68;;;;;;;22.83;31.13;98654.97;4917189;29;20043;-51
2022/03/03 09:42:33;;;;;;;22.23;10.57;;;;;;;23.96;29.64;98646.50;4917190;29;20064;-51
2022/03/03 09:45:03;;;;;;;24.30;10.63;;;;;;;25.44;27.49;98634.44;4918454;29;20504;-51
2022/03/03 09:47:29;;;;;;;24.42;9.57;;;;;;;26.82;25.99;98638.63;4917077;29;20067;-51
2022/03/03 09:49:55;;;;;;;23.10;11.23;;;;;;;27.51;24.60;98638.13;4917167;29;20470;-51
2022/03/03 09:52:21;;;;;;;27.33;10.52;;;;;;;27.28;24.92;98630.13;4917135;29;20028;-51
2022/03/03 09:54:50;;;;;;;26.55;9.90;;;;;;;27.88;23.86;98628.69;4916994;29;20126;-51
2022/03/03 09:57:16;;;;;;;21.65;9.93;;;;;;;28.37;23.17;98639.34;4918247;29;20035;-50
2022/03/03 09:59:44;;;;;;;17.02;9.85;;;;;;;28.39;22.95;98630.91;4918217;29;20119;-51
2022/03/03 10:02:11;;;;;;;18.83;9.45;;;;;;;28.73;22.99;98624.69;4916912;29;20099;-51
2022/03/03 10:04:37;;;;;;;26.98;9.98;;;;;;;28.93;22.48;98620.47;4916825;29;20035;-51
2022/03/03 10:07:08;;;;;;;21.17;9.10;;;;;;;28.80;22.59;98619.59;4916892;29;20083;-51
2022/03/03 10:09:59;;;;;;;21.15;10.20;;;;;;;28.68;22.82;98614.84;4916463;29;20415;-51
2022/03/03 10:12:22;;;;;;;25.00;9.88;;;;;;;28.25;22.87;98622.97;4917762;29;20036;-50
2022/03/03 10:14:49;;;;;;;14.27;9.10;;;;;;;28.12;22.99;98621.25;4917942;29;20488;-50
2022/03/03 10:17:16;;;;;;;15.40;8.90;;;;;;;27.91;22.56;98621.09;4917886;29;20028;-51
2022/03/03 10:19:54;;;;;;;27.58;9.50;;;;;;;27.48;22.95;98609.88;4917869;29;20024;-51
2022/03/03 10:22:58;;;;;;;21.52;8.93;;;;;;;26.91;24.02;98612.53;4916496;29;20032;-50
2022/03/03 10:25:34;;;;;;;19.65;9.75;;;;;;;27.22;24.01;98609.00;4917836;29;20032;-51
2022/03/03 10:28:19;;;;;;;17.27;9.18;;;;;;;27.28;23.67;98605.09;4917652;29;20028;-51
2022/03/03 10:31:12;;;;;;;23.15;9.52;;;;;;;27.27;23.65;98600.81;4916361;29;20024;-50
2022/03/03 10:33:45;;;;;;;26.30;9.82;;;;;;;27.30;23.74;98602.88;4917636;29;20032;-51
2022/03/03 10:36:19;;;;;;;18.27;9.13;;;;;;;27.56;23.37;98605.63;4917531;29;20016;-51
2022/03/03 10:38:52;;;;;;;23.30;9.77;;;;;;;27.73;23.14;98593.28;4917498;29;20040;-50
2022/03/03 10:41:40;;;;;;;20.08;9.65;;;;;;;28.29;22.62;98599.63;4915974;29;20040;-50
2022/03/03 10:44:15;;;;;;;42.08;10.25;;;;;;;28.52;22.47;98594.09;4916140;29;20051;-51
2022/03/03 10:47:01;;;;;;;37.28;10.32;;;;;;;28.85;21.73;98591.59;4916062;29;20055;-51
2022/03/03 10:49:27;;;;;;;21.35;9.65;;;;;;;28.86;22.06;98587.78;4917390;29;20032;-51
2022/03/03 10:51:53;;;;;;;21.83;10.95;;;;;;;28.86;21.57;98593.19;4915973;29;20498;-51
2022/03/03 10:54:20;;;;;;;15.45;10.27;;;;;;;28.98;21.84;98587.09;4917239;29;20083;-51
2022/03/03 10:56:48;;;;;;;17.50;10.60;;;;;;;29.21;21.25;98583.03;4915877;29;20035;-51
2022/03/03 10:59:25;;;;;;;28.40;10.50;;;;;;;29.32;21.20;98579.94;4917146;29;20406;-51
2022/03/03 11:01:52;;;;;;;15.20;10.23;;;;;;;29.02;21.46;98582.63;4915775;29;20028;-51
2022/03/03 11:04:20;;;;;;;18.70;10.60;;;;;;;28.94;21.85;98575.38;4915791;29;20123;-51
2022/03/03 11:06:52;;;;;;;14.65;10.32;;;;;;;28.94;21.52;98567.25;4916914;29;20498;-51
2022/03/03 11:09:19;;;;;;;15.50;10.32;;;;;;;29.17;21.48;98567.78;4916960;29;20067;-51
2022/03/03 11:11:46;;;;;;;16.33;11.20;;;;;;;29.16;21.39;98564.31;4899780;29;20044;-51
2022/03/03 11:14:12;;;;;;;27.50;12.38;;;;;;;28.85;21.96;98568.06;4899851;29;20123;-51
2022/03/03 11:16:42;;;;;;;18.58;10.98;;;;;;;27.88;22.55;98573.97;4915527;29;20032;-51
2022/03/03 11:19:10;;;;;;;18.17;11.48;;;;;;;27.39;23.84;98567.88;4915509;29;20099;-51
2022/03/03 11:21:36;;;;;;;13.70;10.23;;;;;;;27.46;23.13;98563.59;4916668;29;20027;-51
2022/03/03 11:24:02;;;;;;;17.45;10.15;;;;;;;27.94;23.14;98564.59;4916668;29;20536;-51
2022/03/03 11:26:47;;;;;;;19.83;10.27;;;;;;;28.64;22.15;98551.00;4915409;29;20099;-51
2022/03/03 11:29:15;;;;;;;15.48;10.80;;;;;;;28.77;21.90;98550.00;4916616;29;20036;-51
2022/03/03 11:31:59;;;;;;;18.30;10.82;;;;;;;28.94;22.07;98542.94;4899548;29;20446;-51